createdAt,value
2022-08-27T00:01:18.795Z,19.75
2022-08-27T00:03:46.272Z,19.69
2022-08-27T00:06:17.687Z,19.89
2022-08-27T00:08:47.579Z,20.01
2022-08-27T00:11:15.263Z,19.77
2022-08-27T00:13:42.253Z,20.03
2022-08-27T00:16:10.929Z,19.66
2022-08-27T00:18:39.014Z,19.78
2022-08-27T00:21:06.991Z,19.70
2022-08-27T00:23:33.845Z,19.60
2022-08-27T00:26:00.316Z,19.95
2022-08-27T00:28:29.002Z,19.71
2022-08-27T00:30:56.316Z,19.94
2022-08-27T00:33:23.810Z,19.93
2022-08-27T00:35:50.970Z,19.82
2022-08-27T00:38:18.801Z,19.92
2022-08-27T00:40:45.617Z,19.98
2022-08-27T00:43:12.173Z,20.13
2022-08-27T00:45:45.493Z,19.82
2022-08-27T00:48:15.998Z,19.84
2022-08-27T00:50:53.104Z,19.70
2022-08-27T00:53:23.459Z,19.77
2022-08-27T00:55:55.140Z,19.59
2022-08-27T00:58:41.317Z,19.67
2022-08-27T01:01:12.035Z,19.55
2022-08-27T01:03:39.976Z,19.53
2022-08-27T01:06:10.835Z,19.64
2022-08-27T01:08:48.144Z,19.49
2022-08-27T01:11:14.702Z,19.19
2022-08-27T01:13:59.810Z,19.23
2022-08-27T01:16:33.852Z,19.44
2022-08-27T01:19:00.991Z,19.38
2022-08-27T01:21:39.324Z,19.44
2022-08-27T01:24:20.320Z,19.52
2022-08-27T01:26:47.538Z,19.52
2022-08-27T01:29:14.621Z,19.33
2022-08-27T01:31:41.146Z,19.11
2022-08-27T01:34:07.694Z,19.25
2022-08-27T01:36:34.179Z,19.02
2022-08-27T01:39:00.784Z,18.86
2022-08-27T01:41:27.449Z,18.82
2022-08-27T01:43:54.268Z,19.01
2022-08-27T01:46:24.950Z,18.90
2022-08-27T01:48:52.153Z,19.02
2022-08-27T01:51:19.379Z,18.87
2022-08-27T01:53:46.340Z,18.76
2022-08-27T01:56:13.112Z,18.87
2022-08-27T01:58:39.983Z,18.69
2022-08-27T02:01:11.398Z,18.77
2022-08-27T02:03:40.345Z,18.97
2022-08-27T02:06:09.628Z,18.77
2022-08-27T02:08:36.215Z,18.88
2022-08-27T02:11:03.226Z,18.64
2022-08-27T02:13:29.839Z,18.57
2022-08-27T02:15:56.710Z,18.56
2022-08-27T02:18:23.266Z,18.54
2022-08-27T02:20:49.783Z,18.53
2022-08-27T02:23:16.716Z,18.56
2022-08-27T02:25:43.571Z,18.87
2022-08-27T02:28:10.568Z,18.65
2022-08-27T02:30:37.544Z,18.66
2022-08-27T02:33:05.604Z,18.75
2022-08-27T02:35:34.526Z,18.69
2022-08-27T02:38:02.371Z,18.57
2022-08-27T02:40:29.655Z,18.79
2022-08-27T02:42:56.190Z,18.59
2022-08-27T02:45:22.715Z,18.41
2022-08-27T02:47:49.408Z,18.32
2022-08-27T02:50:17.153Z,18.41
2022-08-27T02:52:45.301Z,18.40
2022-08-27T02:55:14.442Z,18.51
2022-08-27T02:57:44.009Z,18.41
2022-08-27T03:00:15.367Z,18.43
2022-08-27T03:02:42.244Z,18.54
2022-08-27T03:05:09.591Z,18.37
2022-08-27T03:07:37.256Z,18.36
2022-08-27T03:10:05.715Z,18.22
2022-08-27T03:12:33.371Z,18.19
2022-08-27T03:15:00.180Z,18.09
2022-08-27T03:17:45.263Z,18.17
2022-08-27T03:20:12.394Z,18.28
2022-08-27T03:22:40.204Z,18.18
2022-08-27T03:25:07.603Z,18.16
2022-08-27T03:27:34.114Z,18.22
2022-08-27T03:30:04.282Z,18.25
2022-08-27T03:32:31.173Z,18.10
2022-08-27T03:35:00.658Z,18.22
2022-08-27T03:37:27.988Z,18.11
2022-08-27T03:39:54.897Z,17.99
2022-08-27T03:42:21.943Z,18.23
2022-08-27T03:44:48.818Z,18.14
2022-08-27T03:47:15.485Z,18.18
2022-08-27T03:49:41.970Z,18.37
2022-08-27T03:52:09.486Z,18.15
2022-08-27T03:54:37.869Z,18.04
2022-08-27T03:57:05.331Z,18.13
2022-08-27T03:59:32.087Z,18.20
2022-08-27T04:01:59.779Z,17.93
2022-08-27T04:04:26.460Z,18.01
2022-08-27T04:06:52.900Z,18.14
2022-08-27T04:09:22.963Z,18.01
2022-08-27T04:11:50.008Z,17.86
2022-08-27T04:14:25.420Z,17.88
2022-08-27T04:16:54.859Z,17.83
2022-08-27T04:19:26.939Z,17.78
2022-08-27T04:21:53.976Z,17.84
2022-08-27T04:24:20.447Z,17.71
2022-08-27T04:26:47.739Z,17.83
2022-08-27T04:29:14.422Z,17.75
2022-08-27T04:31:41.009Z,17.74
2022-08-27T04:34:07.741Z,17.73
2022-08-27T04:36:34.406Z,17.86
2022-08-27T04:39:01.223Z,17.82
2022-08-27T04:41:27.786Z,17.68
2022-08-27T04:43:56.990Z,17.70
2022-08-27T04:46:29.548Z,17.81
2022-08-27T04:49:01.502Z,17.75
2022-08-27T04:51:29.672Z,17.82
2022-08-27T04:53:57.645Z,17.96
2022-08-27T04:56:28.076Z,17.84
2022-08-27T04:58:54.575Z,17.65
2022-08-27T05:01:24.049Z,17.66
2022-08-27T05:03:51.015Z,17.89
2022-08-27T05:06:18.678Z,17.93
2022-08-27T05:08:45.595Z,17.77
2022-08-27T05:11:15.800Z,17.64
2022-08-27T05:13:43.915Z,17.64
2022-08-27T05:16:21.557Z,17.61
2022-08-27T05:18:50.148Z,17.44
2022-08-27T05:21:23.500Z,17.49
2022-08-27T05:23:50.784Z,17.54
2022-08-27T05:26:17.718Z,17.69
2022-08-27T05:28:44.366Z,17.55
2022-08-27T05:31:13.039Z,17.53
2022-08-27T05:33:40.779Z,17.48
2022-08-27T05:36:14.571Z,17.40
2022-08-27T05:38:41.846Z,17.54
2022-08-27T05:41:17.631Z,17.55
2022-08-27T05:43:49.692Z,17.67
2022-08-27T05:46:20.319Z,17.79
2022-08-27T05:48:49.780Z,18.05
2022-08-27T05:51:25.652Z,17.68
2022-08-27T05:54:08.795Z,17.92
2022-08-27T05:56:37.764Z,17.81
2022-08-27T05:59:24.193Z,17.55
2022-08-27T06:01:53.040Z,17.68
2022-08-27T06:04:20.843Z,17.46
2022-08-27T06:06:48.911Z,17.35
2022-08-27T06:09:19.278Z,17.30
2022-08-27T06:11:46.442Z,17.25
2022-08-27T06:14:13.074Z,17.35
2022-08-27T06:16:40.981Z,17.39
2022-08-27T06:19:09.031Z,17.40
2022-08-27T06:21:35.556Z,17.32
2022-08-27T06:24:02.336Z,17.18
2022-08-27T06:26:29.339Z,17.23
2022-08-27T06:28:55.816Z,17.26
2022-08-27T06:31:27.609Z,17.25
2022-08-27T06:34:00.728Z,17.21
2022-08-27T06:36:37.820Z,17.41
2022-08-27T06:39:05.029Z,17.18
2022-08-27T06:41:31.527Z,17.22
2022-08-27T06:43:58.650Z,17.18
2022-08-27T06:46:27.507Z,17.17
2022-08-27T06:48:56.398Z,17.22
2022-08-27T06:51:26.787Z,17.52
2022-08-27T06:53:55.754Z,17.65
2022-08-27T06:56:23.331Z,17.66
2022-08-27T06:58:55.530Z,17.66
2022-08-27T07:01:26.161Z,17.85
2022-08-27T07:03:55.252Z,17.81
2022-08-27T07:06:25.951Z,18.31
2022-08-27T07:08:53.559Z,18.12
2022-08-27T07:11:20.893Z,18.23
2022-08-27T07:13:48.308Z,18.24
2022-08-27T07:16:18.839Z,17.91
2022-08-27T07:18:46.242Z,17.63
2022-08-27T07:21:13.001Z,17.73
2022-08-27T07:23:40.198Z,17.63
2022-08-27T07:26:08.932Z,17.65
2022-08-27T07:28:35.554Z,17.99
2022-08-27T07:31:02.168Z,17.75
2022-08-27T07:33:28.723Z,17.76
2022-08-27T07:35:55.169Z,17.99
2022-08-27T07:38:21.719Z,17.92
2022-08-27T07:40:48.271Z,17.87
2022-08-27T07:43:33.534Z,17.78
2022-08-27T07:46:02.035Z,17.89
2022-08-27T07:48:29.839Z,18.03
2022-08-27T07:50:56.671Z,18.11
2022-08-27T07:53:24.131Z,17.93
2022-08-27T07:55:51.378Z,17.74
2022-08-27T07:58:18.729Z,17.87
2022-08-27T08:00:45.919Z,18.18
2022-08-27T08:03:13.227Z,17.90
2022-08-27T08:05:43.975Z,18.10
2022-08-27T08:08:11.924Z,18.22
2022-08-27T08:10:39.892Z,18.45
2022-08-27T08:13:08.167Z,18.00
2022-08-27T08:15:34.714Z,18.26
2022-08-27T08:18:01.735Z,18.33
2022-08-27T08:20:54.642Z,18.41
2022-08-27T08:23:20.837Z,18.58
2022-08-27T08:25:48.562Z,18.55
2022-08-27T08:28:15.000Z,18.64
2022-08-27T08:30:44.089Z,18.69
2022-08-27T08:33:10.908Z,18.73
2022-08-27T08:35:41.351Z,19.32
2022-08-27T08:38:08.479Z,18.73
2022-08-27T08:40:41.718Z,18.64
2022-08-27T08:43:21.302Z,18.79
2022-08-27T08:45:49.766Z,19.44
2022-08-27T08:48:21.446Z,19.21
2022-08-27T08:51:06.719Z,18.88
2022-08-27T08:53:47.258Z,19.33
2022-08-27T08:56:28.609Z,19.22
2022-08-27T08:59:26.073Z,19.42
2022-08-27T09:01:52.665Z,18.80
2022-08-27T09:04:19.179Z,18.95
2022-08-27T09:06:53.380Z,19.13
2022-08-27T09:09:35.919Z,19.07
2022-08-27T09:12:25.356Z,19.41
2022-08-27T09:15:00.089Z,19.33
2022-08-27T09:17:27.779Z,19.32
2022-08-27T09:19:56.015Z,19.02
2022-08-27T09:22:53.857Z,19.01
2022-08-27T09:25:28.728Z,19.64
2022-08-27T09:28:00.089Z,19.37
2022-08-27T09:30:31.007Z,19.78
2022-08-27T09:33:01.183Z,19.84
2022-08-27T09:35:34.327Z,19.21
2022-08-27T09:38:02.560Z,19.95
2022-08-27T09:40:33.548Z,19.75
2022-08-27T09:43:18.754Z,19.95
2022-08-27T09:45:54.262Z,20.02
2022-08-27T09:48:37.344Z,19.35
2022-08-27T09:51:12.424Z,19.07
2022-08-27T09:53:59.861Z,19.18
2022-08-27T09:56:39.229Z,19.55
2022-08-27T09:59:07.384Z,19.97
2022-08-27T10:01:38.636Z,20.12
2022-08-27T10:04:11.798Z,19.72
2022-08-27T10:06:45.855Z,19.96
2022-08-27T10:09:34.392Z,20.29
2022-08-27T10:12:10.469Z,19.83
2022-08-27T10:15:05.408Z,19.85
2022-08-27T10:18:01.272Z,20.58
2022-08-27T10:20:36.939Z,20.30
2022-08-27T10:23:08.620Z,20.28
2022-08-27T10:25:44.074Z,20.82
2022-08-27T10:28:39.598Z,20.38
2022-08-27T10:31:11.806Z,20.61
2022-08-27T10:33:50.083Z,19.99
2022-08-27T10:36:31.188Z,19.91
2022-08-27T10:39:19.300Z,19.57
2022-08-27T10:42:14.097Z,20.40
2022-08-27T10:44:54.910Z,20.28
2022-08-27T10:48:09.235Z,20.59
2022-08-27T10:50:55.131Z,20.18
2022-08-27T10:53:40.263Z,20.24
2022-08-27T10:56:23.144Z,19.82
2022-08-27T10:59:17.554Z,20.47
2022-08-27T11:02:00.748Z,20.09
2022-08-27T11:04:39.445Z,21.04
2022-08-27T11:07:22.362Z,20.82
2022-08-27T11:09:57.178Z,22.24
2022-08-27T11:12:33.704Z,23.23
2022-08-27T11:15:05.031Z,24.43
2022-08-27T11:17:37.758Z,24.77
2022-08-27T11:20:12.471Z,24.23
2022-08-27T11:22:47.219Z,23.21
2022-08-27T11:25:22.901Z,25.13
2022-08-27T11:27:53.721Z,25.57
2022-08-27T11:30:29.797Z,25.49
2022-08-27T11:33:19.753Z,24.35
2022-08-27T11:36:09.531Z,25.20
2022-08-27T11:38:38.814Z,27.06
2022-08-27T11:41:15.031Z,25.87
2022-08-27T11:43:42.771Z,26.45
2022-08-27T11:46:09.876Z,26.42
2022-08-27T11:48:55.783Z,27.36
2022-08-27T11:51:39.684Z,26.43
2022-08-27T11:54:10.262Z,26.09
2022-08-27T11:56:41.530Z,26.58
2022-08-27T11:59:22.435Z,28.79
2022-08-27T12:01:52.650Z,27.33
2022-08-27T12:04:24.839Z,26.95
2022-08-27T12:07:07.341Z,27.14
2022-08-27T12:09:58.648Z,27.66
2022-08-27T12:12:53.006Z,28.38
2022-08-27T12:15:33.857Z,29.07
2022-08-27T12:18:26.955Z,28.57
2022-08-27T12:21:02.593Z,28.94
2022-08-27T12:23:40.965Z,28.13
2022-08-27T12:26:34.499Z,28.64
2022-08-27T12:29:29.401Z,27.59
2022-08-27T12:32:04.726Z,30.24
2022-08-27T12:34:44.368Z,29.37
2022-08-27T12:37:13.243Z,28.08
2022-08-27T12:39:44.503Z,29.99
2022-08-27T12:42:19.198Z,29.81
2022-08-27T12:44:45.745Z,32.37
2022-08-27T12:47:16.043Z,29.82
2022-08-27T12:49:53.828Z,29.87
2022-08-27T12:52:37.493Z,31.42
2022-08-27T12:55:12.072Z,30.66
2022-08-27T12:57:53.634Z,30.31
2022-08-27T13:00:26.376Z,32.04
2022-08-27T13:03:22.092Z,31.98
2022-08-27T13:05:51.021Z,28.79
2022-08-27T13:08:36.447Z,29.33
2022-08-27T13:11:26.655Z,28.98
2022-08-27T13:14:09.638Z,31.62
2022-08-27T13:16:39.898Z,28.98
2022-08-27T13:19:07.055Z,31.59
2022-08-27T13:21:33.937Z,31.57
2022-08-27T13:24:06.532Z,33.03
2022-08-27T13:26:37.451Z,32.03
2022-08-27T13:29:08.152Z,34.23
2022-08-27T13:31:35.928Z,31.96
2022-08-27T13:34:03.869Z,32.71
2022-08-27T13:36:36.970Z,31.50
2022-08-27T13:39:07.118Z,30.61
2022-08-27T13:41:37.101Z,31.11
2022-08-27T13:44:10.707Z,29.94
2022-08-27T13:46:49.618Z,32.44
2022-08-27T13:49:25.621Z,31.06
2022-08-27T13:52:09.759Z,32.24
2022-08-27T13:54:36.853Z,30.60
2022-08-27T13:57:10.117Z,32.14
2022-08-27T13:59:42.973Z,31.75
2022-08-27T14:02:10.463Z,32.30
2022-08-27T14:05:11.107Z,33.15
2022-08-27T14:07:46.885Z,33.97
2022-08-27T14:10:35.958Z,35.12
2022-08-27T14:13:02.618Z,34.17
2022-08-27T14:15:45.913Z,32.18
2022-08-27T14:18:58.929Z,32.34
2022-08-27T14:21:22.602Z,33.22
2022-08-27T14:23:49.494Z,31.92
2022-08-27T14:26:17.308Z,34.07
2022-08-27T14:28:44.854Z,35.22
2022-08-27T14:31:12.126Z,35.09
2022-08-27T14:33:39.273Z,32.36
2022-08-27T14:36:07.331Z,34.16
2022-08-27T14:38:36.093Z,34.42
2022-08-27T14:41:03.731Z,33.34
2022-08-27T14:43:34.697Z,32.08
2022-08-27T14:46:05.079Z,34.35
2022-08-27T14:48:34.514Z,35.36
2022-08-27T14:51:09.407Z,34.36
2022-08-27T14:53:35.922Z,34.68
2022-08-27T14:56:02.982Z,34.41
2022-08-27T14:58:30.056Z,33.83
2022-08-27T15:00:57.856Z,34.74
2022-08-27T15:03:25.493Z,34.58
2022-08-27T15:05:55.783Z,34.65
2022-08-27T15:08:27.678Z,35.36
2022-08-27T15:10:56.796Z,32.58
2022-08-27T15:13:24.029Z,32.84
2022-08-27T15:15:52.292Z,33.44
2022-08-27T15:18:19.937Z,33.40
2022-08-27T15:20:46.546Z,33.55
2022-08-27T15:23:15.391Z,32.83
2022-08-27T15:25:44.637Z,34.82
2022-08-27T15:28:11.330Z,31.48
2022-08-27T15:30:40.590Z,34.46
2022-08-27T15:33:07.760Z,34.19
2022-08-27T15:35:34.761Z,31.07
2022-08-27T15:38:01.772Z,32.21
2022-08-27T15:40:33.459Z,30.63
2022-08-27T15:43:04.495Z,31.79
2022-08-27T15:45:32.241Z,33.17
2022-08-27T15:47:59.998Z,32.89
2022-08-27T15:50:28.438Z,33.13
2022-08-27T15:52:59.951Z,34.76
2022-08-27T15:55:29.861Z,32.51
2022-08-27T15:57:57.256Z,31.87
2022-08-27T16:00:24.757Z,30.85
2022-08-27T16:02:52.455Z,32.09
2022-08-27T16:05:19.971Z,31.17
2022-08-27T16:07:46.958Z,31.94
2022-08-27T16:10:15.533Z,31.77
2022-08-27T16:12:42.206Z,33.18
2022-08-27T16:15:09.111Z,30.82
2022-08-27T16:17:36.058Z,31.41
2022-08-27T16:20:04.691Z,30.57
2022-08-27T16:22:31.417Z,29.56
2022-08-27T16:24:58.105Z,31.19
2022-08-27T16:27:24.767Z,31.49
2022-08-27T16:29:51.432Z,31.45
2022-08-27T16:32:18.769Z,31.10
2022-08-27T16:34:52.532Z,31.32
2022-08-27T16:37:23.406Z,33.08
2022-08-27T16:39:50.148Z,31.95
2022-08-27T16:42:16.934Z,33.27
2022-08-27T16:44:43.764Z,31.64
2022-08-27T16:47:10.480Z,33.22
2022-08-27T16:49:55.825Z,31.33
2022-08-27T16:52:24.025Z,31.31
2022-08-27T16:54:52.053Z,29.94
2022-08-27T16:57:20.329Z,30.05
2022-08-27T16:59:46.849Z,30.85
2022-08-27T17:02:30.723Z,28.70
2022-08-27T17:05:12.150Z,28.73
2022-08-27T17:07:48.202Z,27.95
2022-08-27T17:10:17.708Z,28.13
2022-08-27T17:12:47.054Z,26.96
2022-08-27T17:15:16.847Z,27.90
2022-08-27T17:17:44.635Z,28.58
2022-08-27T17:20:11.403Z,27.43
2022-08-27T17:22:38.483Z,27.72
2022-08-27T17:25:06.039Z,26.99
2022-08-27T17:27:32.954Z,26.91
2022-08-27T17:29:59.868Z,25.70
2022-08-27T17:32:27.672Z,25.23
2022-08-27T17:34:54.539Z,25.97
2022-08-27T17:37:21.134Z,24.86
2022-08-27T17:39:47.711Z,24.36
2022-08-27T17:42:14.631Z,23.67
2022-08-27T17:44:41.163Z,23.38
2022-08-27T17:47:09.059Z,22.52
2022-08-27T17:49:36.881Z,22.11
2022-08-27T17:52:15.078Z,21.34
2022-08-27T17:54:51.192Z,21.28
2022-08-27T17:57:19.930Z,21.28
2022-08-27T17:59:47.575Z,20.60
2022-08-27T18:02:42.911Z,20.67
2022-08-27T18:05:13.027Z,20.44
2022-08-27T18:07:41.222Z,20.26
2022-08-27T18:10:10.079Z,20.08
2022-08-27T18:12:37.327Z,19.66
2022-08-27T18:15:29.116Z,19.39
2022-08-27T18:17:57.093Z,19.49
2022-08-27T18:20:25.121Z,19.49
2022-08-27T18:22:52.115Z,19.06
2022-08-27T18:25:24.470Z,18.91
2022-08-27T18:27:56.528Z,19.01
2022-08-27T18:30:24.211Z,19.11
2022-08-27T18:32:51.417Z,18.79
2022-08-27T18:35:24.707Z,18.77
2022-08-27T18:37:51.277Z,18.43
2022-08-27T18:40:20.721Z,18.33
2022-08-27T18:42:48.275Z,18.42
2022-08-27T18:45:19.008Z,18.17
2022-08-27T18:47:46.001Z,18.30
2022-08-27T18:50:17.492Z,18.25
2022-08-27T18:52:46.248Z,18.37
2022-08-27T18:55:13.938Z,18.25
2022-08-27T18:57:40.639Z,17.89
2022-08-27T19:00:10.603Z,17.88
2022-08-27T19:02:38.025Z,17.82
2022-08-27T19:05:06.353Z,17.86
2022-08-27T19:07:32.832Z,17.88
2022-08-27T19:09:59.536Z,17.77
2022-08-27T19:12:26.071Z,17.73
2022-08-27T19:14:52.905Z,17.66
2022-08-27T19:17:33.065Z,17.40
2022-08-27T19:20:00.777Z,17.18
2022-08-27T19:22:28.162Z,17.24
2022-08-27T19:24:54.835Z,17.03
2022-08-27T19:27:25.095Z,17.00
2022-08-27T19:29:52.314Z,16.85
2022-08-27T19:32:19.907Z,16.95
2022-08-27T19:34:47.028Z,16.89
2022-08-27T19:37:20.267Z,16.98
2022-08-27T19:39:47.096Z,16.64
2022-08-27T19:42:13.763Z,16.77
2022-08-27T19:44:40.396Z,16.66
2022-08-27T19:47:10.225Z,16.56
2022-08-27T19:49:37.130Z,16.62
2022-08-27T19:52:08.275Z,16.69
2022-08-27T19:54:40.045Z,16.71
2022-08-27T19:57:13.920Z,16.82
2022-08-27T19:59:40.464Z,16.77
2022-08-27T20:02:08.899Z,16.75
2022-08-27T20:04:47.575Z,16.62
2022-08-27T20:07:22.884Z,16.84
2022-08-27T20:09:50.175Z,16.62
2022-08-27T20:12:17.579Z,16.40
2022-08-27T20:14:44.295Z,16.42
2022-08-27T20:17:13.612Z,16.07
2022-08-27T20:19:42.953Z,15.90
2022-08-27T20:22:11.048Z,15.87
2022-08-27T20:24:37.636Z,15.67
2022-08-27T20:27:04.828Z,15.82
2022-08-27T20:29:32.713Z,15.75
2022-08-27T20:31:59.560Z,16.07
2022-08-27T20:34:26.153Z,15.80
2022-08-27T20:36:56.036Z,15.92
2022-08-27T20:39:22.547Z,15.71
2022-08-27T20:41:48.995Z,15.71
2022-08-27T20:44:16.961Z,15.63
2022-08-27T20:46:43.661Z,15.69
2022-08-27T20:49:15.392Z,15.44
2022-08-27T20:52:01.982Z,15.25
2022-08-27T20:54:28.676Z,15.41
2022-08-27T20:56:56.452Z,15.41
2022-08-27T20:59:41.637Z,15.26
2022-08-27T21:02:11.334Z,15.47
2022-08-27T21:04:46.566Z,15.44
2022-08-27T21:07:14.605Z,15.22
2022-08-27T21:09:56.637Z,15.24
2022-08-27T21:12:26.347Z,15.24
2022-08-27T21:14:56.047Z,15.08
2022-08-27T21:17:24.939Z,15.07
2022-08-27T21:19:52.029Z,14.91
2022-08-27T21:22:19.203Z,15.02
2022-08-27T21:24:47.406Z,15.05
2022-08-27T21:27:15.392Z,14.93
2022-08-27T21:29:44.629Z,14.76
2022-08-27T21:32:11.528Z,14.63
2022-08-27T21:34:38.007Z,14.60
2022-08-27T21:37:04.847Z,14.90
2022-08-27T21:39:32.769Z,14.65
2022-08-27T21:42:01.057Z,14.63
2022-08-27T21:44:28.278Z,14.71
2022-08-27T21:46:54.997Z,14.44
2022-08-27T21:49:22.032Z,14.32
2022-08-27T21:51:48.511Z,14.30
2022-08-27T21:54:15.139Z,14.43
2022-08-27T21:56:43.387Z,14.57
2022-08-27T21:59:10.011Z,14.31
2022-08-27T22:01:36.812Z,14.27
2022-08-27T22:04:04.152Z,14.12
2022-08-27T22:06:30.878Z,14.00
2022-08-27T22:08:57.518Z,14.07
2022-08-27T22:11:25.716Z,14.05
2022-08-27T22:13:53.192Z,14.14
2022-08-27T22:16:19.930Z,14.33
2022-08-27T22:18:47.514Z,14.05
2022-08-27T22:21:21.187Z,13.85
2022-08-27T22:23:47.640Z,13.94
2022-08-27T22:26:14.129Z,14.02
2022-08-27T22:28:40.582Z,13.96
2022-08-27T22:31:07.887Z,13.73
2022-08-27T22:33:34.445Z,13.78
2022-08-27T22:36:01.175Z,13.61
2022-08-27T22:38:27.767Z,13.58
2022-08-27T22:40:54.285Z,13.84
2022-08-27T22:43:21.114Z,13.62
2022-08-27T22:45:47.634Z,13.68
2022-08-27T22:48:14.285Z,13.53
2022-08-27T22:50:41.027Z,13.70
2022-08-27T22:53:08.491Z,13.67
2022-08-27T22:55:35.215Z,13.57
2022-08-27T22:58:02.133Z,13.53
2022-08-27T23:00:32.564Z,13.56
2022-08-27T23:02:59.169Z,13.54
2022-08-27T23:05:26.353Z,13.51
2022-08-27T23:07:54.607Z,13.65
2022-08-27T23:10:24.073Z,13.78
2022-08-27T23:12:53.542Z,13.83
2022-08-27T23:15:23.326Z,13.81
2022-08-27T23:17:49.822Z,13.80
2022-08-27T23:20:16.950Z,13.76
2022-08-27T23:22:45.394Z,13.87
2022-08-27T23:25:31.505Z,13.89
2022-08-27T23:27:59.739Z,13.96
2022-08-27T23:30:27.036Z,13.90
2022-08-27T23:32:54.775Z,13.94
2022-08-27T23:35:22.702Z,13.65
2022-08-27T23:37:50.327Z,13.69
2022-08-27T23:40:17.941Z,13.79
2022-08-27T23:42:45.055Z,13.60
2022-08-27T23:45:18.941Z,13.54
2022-08-27T23:47:45.426Z,13.67
2022-08-27T23:50:12.258Z,13.65
2022-08-27T23:52:39.152Z,13.77
2022-08-27T23:55:07.036Z,13.59
2022-08-27T23:57:33.966Z,13.69
